• Join FlightAware (Why Join?)
  • Login
  • US Flag 
10:26PM EST


 

Airport Tracker/Info


-or-


 

Live Flight TrackerFlight Track Log ✈ N319EE ✈ 13-Jun-2014 ✈ KROC - KBGM

Flight Track Log - Related Links

Times and Time Zones

All times are in EDT time to prevent confusion due to time zone crossing. See the N319EE flight status page for this flight to view local times or setup timezone preferences in your user account.

Time Position Orientation Groundspeed Altitude Reporting Facility
EDT Latitude Longitude Course Direction KTS MPH feet Rate Location/Type
05:08PM 43.0958 -77.7192 221° Southwest 171 197 3,700  Level Cleveland Center
05:09PM 43.0664 -77.6792 135° Southeast 200 230 5,400 2,280 Climbing Cleveland Center
05:10PM 43.0331 -77.6097 123° Southeast 193 222 8,300 2,220 Climbing Cleveland Center
05:11PM 43.0022 -77.5475 124° Southeast 196 226 10,000 1,260 Climbing Cleveland Center
05:12PM 42.9661 -77.4764 125° Southeast 211 243 11,000 480 Climbing Cleveland Center
05:13PM 42.9103 -77.4169 142° Southeast 258 297 11,000  Level Cleveland Center
05:14PM 42.8458 -77.3769 156° South 252 290 11,000  Level Cleveland Center
05:15PM 42.7811 -77.3375 156° South 252 290 11,000  Level Cleveland Center
05:16PM 42.7169 -77.2961 155° Southeast 252 290 11,000  Level Cleveland Center
05:17PM 42.6494 -77.2547 156° South 259 298 11,000  Level Cleveland Center
05:18PM 42.5817 -77.2136 156° South 261 300 11,000  Level Cleveland Center
05:19PM 42.5114 -77.1719 156° South 267 307 11,000  Level Cleveland Center
05:20PM 42.4286 -77.1239 157° South 269 310 11,000  Level Cleveland Center
05:21PM 42.3614 -77.0844 157° South 269 310 11,000  Level Cleveland Center
05:22PM 42.2972 -77.0378 152° Southeast 268 308 11,000 -480 Level Cleveland Center
05:23PM 42.2461 -76.9600 132° Southeast 262 302 10,100 -1,080 Descending Cleveland Center
05:24PM 42.1986 -76.8764 127° Southeast 279 321 8,900 -540 Descending Cleveland Center
05:25PM 42.1647 -76.7947 119° Southeast 255 293 9,000  Climbing Cleveland Center
05:26PM 42.1350 -76.7083 115° Southeast 259 298 9,000 -120 Level Cleveland Center
05:27PM 42.1078 -76.6050 110° East 248 285 8,800 -1,380 Descending Cleveland Center
05:29PM 42.1133 -76.4078 88° East 276 318 4,900 -1,560 Descending Cleveland Center
05:30PM 42.1525 -76.3228 58° Northeast 268 308 4,000 -480 Descending Cleveland Center
05:31PM 42.1961 -76.2578 48° Northeast 255 293 4,000 -180 Level Cleveland Center
05:34PM 42.2589 -76.0717 65° Northeast 230 265 3,400 -360 Descending New York Center
05:35PM 42.2792 -75.9922 71° East 207 238 2,800 -600 Descending New York Center